sensor_id;sensor_type;location;lat;lon;timestamp;pressure;altitude;pressure_sealevel;temperature
80537;BMP280;69867;47.074;15.404;2023-05-10T00:00:45;97347.97;;;9.45
80537;BMP280;69867;47.074;15.404;2023-05-10T00:03:10;97341.19;;;9.39
80537;BMP280;69867;47.074;15.404;2023-05-10T00:05:35;97342.16;;;9.34
80537;BMP280;69867;47.074;15.404;2023-05-10T00:08:01;97343.19;;;9.26
80537;BMP280;69867;47.074;15.404;2023-05-10T00:10:26;97335.53;;;9.20
80537;BMP280;69867;47.074;15.404;2023-05-10T00:12:51;97337.38;;;9.15
80537;BMP280;69867;47.074;15.404;2023-05-10T00:15:17;97327.25;;;9.03
80537;BMP280;69867;47.074;15.404;2023-05-10T00:17:42;97329.16;;;8.95
80537;BMP280;69867;47.074;15.404;2023-05-10T00:20:08;97331.91;;;8.87
80537;BMP280;69867;47.074;15.404;2023-05-10T00:22:33;97330.31;;;8.80
80537;BMP280;69867;47.074;15.404;2023-05-10T00:24:59;97332.22;;;8.72
80537;BMP280;69867;47.074;15.404;2023-05-10T00:27:24;97329.72;;;8.68
80537;BMP280;69867;47.074;15.404;2023-05-10T00:29:50;97325.47;;;8.63
80537;BMP280;69867;47.074;15.404;2023-05-10T00:32:15;97327.31;;;8.58
80537;BMP280;69867;47.074;15.404;2023-05-10T00:34:40;97323.06;;;8.54
80537;BMP280;69867;47.074;15.404;2023-05-10T00:37:06;97318.81;;;8.52
80537;BMP280;69867;47.074;15.404;2023-05-10T00:39:31;97313.69;;;8.49
80537;BMP280;69867;47.074;15.404;2023-05-10T00:41:56;97315.41;;;8.48
80537;BMP280;69867;47.074;15.404;2023-05-10T00:44:22;97318.03;;;8.47
80537;BMP280;69867;47.074;15.404;2023-05-10T00:46:47;97308.47;;;8.50
80537;BMP280;69867;47.074;15.404;2023-05-10T00:49:13;97309.28;;;8.52
80537;BMP280;69867;47.074;15.404;2023-05-10T00:51:38;97302.28;;;8.57
80537;BMP280;69867;47.074;15.404;2023-05-10T00:54:04;97305.81;;;8.53
80537;BMP280;69867;47.074;15.404;2023-05-10T00:56:30;97299.00;;;8.49
80537;BMP280;69867;47.074;15.404;2023-05-10T00:58:55;97297.22;;;8.51
80537;BMP280;69867;47.074;15.404;2023-05-10T01:01:21;97294.63;;;8.51
80537;BMP280;69867;47.074;15.404;2023-05-10T01:03:46;97297.22;;;8.51
80537;BMP280;69867;47.074;15.404;2023-05-10T01:06:12;97295.56;;;8.49
80537;BMP280;69867;47.074;15.404;2023-05-10T01:08:38;97294.72;;;8.47
80537;BMP280;69867;47.074;15.404;2023-05-10T01:11:04;97294.75;;;8.45
80537;BMP280;69867;47.074;15.404;2023-05-10T01:13:35;97294.00;;;8.40
80537;BMP280;69867;47.074;15.404;2023-05-10T01:16:01;97286.28;;;8.37
80537;BMP280;69867;47.074;15.404;2023-05-10T01:18:28;97291.47;;;8.37
80537;BMP280;69867;47.074;15.404;2023-05-10T01:21:04;97284.69;;;8.28
80537;BMP280;69867;47.074;15.404;2023-05-10T01:37:22;97286.81;;;8.08
80537;BMP280;69867;47.074;15.404;2023-05-10T01:39:56;97293.81;;;8.03
80537;BMP280;69867;47.074;15.404;2023-05-10T01:42:26;97282.63;;;8.01
80537;BMP280;69867;47.074;15.404;2023-05-10T01:45:37;97280.88;;;8.03
80537;BMP280;69867;47.074;15.404;2023-05-10T01:47:43;97284.38;;;8.00
80537;BMP280;69867;47.074;15.404;2023-05-10T01:50:18;97281.88;;;7.94
80537;BMP280;69867;47.074;15.404;2023-05-10T01:52:50;97273.31;;;7.91
80537;BMP280;69867;47.074;15.404;2023-05-10T01:55:18;97281.91;;;7.93
80537;BMP280;69867;47.074;15.404;2023-05-10T01:57:46;97278.56;;;7.88
80537;BMP280;69867;47.074;15.404;2023-05-10T02:00:14;97275.13;;;7.86
80537;BMP280;69867;47.074;15.404;2023-05-10T02:02:48;97275.19;;;7.83
80537;BMP280;69867;47.074;15.404;2023-05-10T02:05:16;97272.63;;;7.80
80537;BMP280;69867;47.074;15.404;2023-05-10T02:07:43;97270.03;;;7.80
80537;BMP280;69867;47.074;15.404;2023-05-10T02:10:10;97279.59;;;7.76
80537;BMP280;69867;47.074;15.404;2023-05-10T02:12:41;97266.69;;;7.75
80537;BMP280;69867;47.074;15.404;2023-05-10T02:15:07;97268.38;;;7.76
80537;BMP280;69867;47.074;15.404;2023-05-10T02:17:35;97265.88;;;7.71
80537;BMP280;69867;47.074;15.404;2023-05-10T02:20:03;97264.22;;;7.67
80537;BMP280;69867;47.074;15.404;2023-05-10T02:22:30;97269.50;;;7.61
80537;BMP280;69867;47.074;15.404;2023-05-10T02:24:57;97255.75;;;7.59
80537;BMP280;69867;47.074;15.404;2023-05-10T02:27:23;97267.84;;;7.57
80537;BMP280;69867;47.074;15.404;2023-05-10T02:29:51;97262.78;;;7.51
80537;BMP280;69867;47.074;15.404;2023-05-10T02:32:17;97265.34;;;7.51
80537;BMP280;69867;47.074;15.404;2023-05-10T02:34:43;97261.97;;;7.47
80537;BMP280;69867;47.074;15.404;2023-05-10T02:37:09;97263.69;;;7.47
80537;BMP280;69867;47.074;15.404;2023-05-10T02:39:35;97256.84;;;7.44
80537;BMP280;69867;47.074;15.404;2023-05-10T02:42:01;97254.34;;;7.39
80537;BMP280;69867;47.074;15.404;2023-05-10T02:44:28;97256.09;;;7.37
80537;BMP280;69867;47.074;15.404;2023-05-10T02:46:54;97251.81;;;7.35
80537;BMP280;69867;47.074;15.404;2023-05-10T02:49:19;97254.47;;;7.30
80537;BMP280;69867;47.074;15.404;2023-05-10T02:51:50;97257.94;;;7.29
80537;BMP280;69867;47.074;15.404;2023-05-10T02:54:19;97255.38;;;7.28
80537;BMP280;69867;47.074;15.404;2023-05-10T02:56:55;97263.22;;;7.23
80537;BMP280;69867;47.074;15.404;2023-05-10T02:59:21;97265.84;;;7.20
80537;BMP280;69867;47.074;15.404;2023-05-10T03:01:47;97264.13;;;7.19
80537;BMP280;69867;47.074;15.404;2023-05-10T03:04:12;97264.13;;;7.19
80537;BMP280;69867;47.074;15.404;2023-05-10T03:06:37;97254.72;;;7.15
80537;BMP280;69867;47.074;15.404;2023-05-10T03:09:03;97265.09;;;7.12
80537;BMP280;69867;47.074;15.404;2023-05-10T03:14:08;97260.06;;;7.03
80537;BMP280;69867;47.074;15.404;2023-05-10T03:16:45;97262.72;;;6.98
80537;BMP280;69867;47.074;15.404;2023-05-10T03:19:24;97267.94;;;6.95
80537;BMP280;69867;47.074;15.404;2023-05-10T03:21:52;97260.22;;;6.94
80537;BMP280;69867;47.074;15.404;2023-05-10T03:24:21;97261.97;;;6.92
80537;BMP280;69867;47.074;15.404;2023-05-10T03:26:48;97261.91;;;6.95
80537;BMP280;69867;47.074;15.404;2023-05-10T03:29:15;97261.91;;;6.95
80537;BMP280;69867;47.074;15.404;2023-05-10T03:31:41;97257.56;;;6.97
80537;BMP280;69867;47.074;15.404;2023-05-10T03:34:06;97261.00;;;6.97
80537;BMP280;69867;47.074;15.404;2023-05-10T03:36:32;97263.63;;;6.96
80537;BMP280;69867;47.074;15.404;2023-05-10T03:38:57;97266.19;;;6.97
80537;BMP280;69867;47.074;15.404;2023-05-10T03:41:23;97267.88;;;6.98
80537;BMP280;69867;47.074;15.404;2023-05-10T03:43:48;97269.59;;;6.99
80537;BMP280;69867;47.074;15.404;2023-05-10T03:46:13;97272.09;;;7.04
80537;BMP280;69867;47.074;15.404;2023-05-10T03:48:39;97271.19;;;7.08
80537;BMP280;69867;47.074;15.404;2023-05-10T03:51:04;97271.88;;;7.19
80537;BMP280;69867;47.074;15.404;2023-05-10T03:53:30;97268.38;;;7.23
80537;BMP280;69867;47.074;15.404;2023-05-10T03:55:55;97266.56;;;7.28
80537;BMP280;69867;47.074;15.404;2023-05-10T03:58:20;97269.13;;;7.30
80537;BMP280;69867;47.074;15.404;2023-05-10T04:00:45;97264.72;;;7.36
80537;BMP280;69867;47.074;15.404;2023-05-10T04:03:11;97256.03;;;7.42
80537;BMP280;69867;47.074;15.404;2023-05-10T04:05:37;97266.19;;;7.53
80537;BMP280;69867;47.074;15.404;2023-05-10T04:08:03;97273.00;;;7.57
80537;BMP280;69867;47.074;15.404;2023-05-10T04:10:28;97266.84;;;7.65
80537;BMP280;69867;47.074;15.404;2023-05-10T04:12:53;97266.81;;;7.67
80537;BMP280;69867;47.074;15.404;2023-05-10T04:15:19;97267.47;;;7.81
80537;BMP280;69867;47.074;15.404;2023-05-10T04:17:44;97277.59;;;7.93
80537;BMP280;69867;47.074;15.404;2023-05-10T04:20:10;97271.44;;;8.00
80537;BMP280;69867;47.074;15.404;2023-05-10T04:22:36;97287.56;;;8.13
80537;BMP280;69867;47.074;15.404;2023-05-10T04:25:01;97280.59;;;8.17
80537;BMP280;69867;47.074;15.404;2023-05-10T04:27:26;97281.19;;;8.31
80537;BMP280;69867;47.074;15.404;2023-05-10T04:29:51;97278.47;;;8.40
80537;BMP280;69867;47.074;15.404;2023-05-10T04:32:17;97283.56;;;8.45
80537;BMP280;69867;47.074;15.404;2023-05-10T04:34:43;97283.34;;;8.55
80537;BMP280;69867;47.074;15.404;2023-05-10T04:37:08;97272.78;;;8.64
80537;BMP280;69867;47.074;15.404;2023-05-10T04:39:34;97281.13;;;8.79
80537;BMP280;69867;47.074;15.404;2023-05-10T04:41:59;97276.69;;;8.84
80537;BMP280;69867;47.074;15.404;2023-05-10T04:44:24;97276.13;;;9.10
80537;BMP280;69867;47.074;15.404;2023-05-10T04:46:50;97281.28;;;9.13
80537;BMP280;69867;47.074;15.404;2023-05-10T04:49:15;97274.34;;;9.13
80537;BMP280;69867;47.074;15.404;2023-05-10T04:51:40;97279.56;;;9.12
80537;BMP280;69867;47.074;15.404;2023-05-10T04:54:06;97286.13;;;9.28
80537;BMP280;69867;47.074;15.404;2023-05-10T04:56:31;97284.97;;;9.40
80537;BMP280;69867;47.074;15.404;2023-05-10T04:58:56;97279.38;;;9.92
80537;BMP280;69867;47.074;15.404;2023-05-10T05:01:22;97273.88;;;10.37
80537;BMP280;69867;47.074;15.404;2023-05-10T05:03:47;97277.31;;;11.27
80537;BMP280;69867;47.074;15.404;2023-05-10T05:06:12;97270.84;;;12.44
80537;BMP280;69867;47.074;15.404;2023-05-10T05:08:37;97265.19;;;13.70
80537;BMP280;69867;47.074;15.404;2023-05-10T05:11:03;97252.03;;;15.67
80537;BMP280;69867;47.074;15.404;2023-05-10T05:13:28;97249.53;;;16.51
80537;BMP280;69867;47.074;15.404;2023-05-10T05:15:54;97249.34;;;17.51
80537;BMP280;69867;47.074;15.404;2023-05-10T05:18:19;97247.88;;;18.23
80537;BMP280;69867;47.074;15.404;2023-05-10T05:20:44;97249.56;;;18.82
80537;BMP280;69867;47.074;15.404;2023-05-10T05:23:10;97243.78;;;18.47
80537;BMP280;69867;47.074;15.404;2023-05-10T05:25:35;97244.59;;;19.33
80537;BMP280;69867;47.074;15.404;2023-05-10T05:28:01;97239.38;;;19.87
80537;BMP280;69867;47.074;15.404;2023-05-10T05:30:26;97237.28;;;20.57
80537;BMP280;69867;47.074;15.404;2023-05-10T05:32:51;97239.13;;;21.19
80537;BMP280;69867;47.074;15.404;2023-05-10T05:35:17;97239.03;;;21.57
80537;BMP280;69867;47.074;15.404;2023-05-10T05:37:42;97236.31;;;21.93
80537;BMP280;69867;47.074;15.404;2023-05-10T05:40:08;97230.25;;;22.39
80537;BMP280;69867;47.074;15.404;2023-05-10T05:42:33;97237.88;;;22.77
80537;BMP280;69867;47.074;15.404;2023-05-10T05:44:58;97245.31;;;22.50
80537;BMP280;69867;47.074;15.404;2023-05-10T05:47:24;97242.63;;;21.56
80537;BMP280;69867;47.074;15.404;2023-05-10T05:49:49;97249.63;;;20.44
80537;BMP280;69867;47.074;15.404;2023-05-10T05:52:14;97255.09;;;19.47
80537;BMP280;69867;47.074;15.404;2023-05-10T05:54:40;97259.50;;;18.77
80537;BMP280;69867;47.074;15.404;2023-05-10T05:57:05;97265.06;;;18.29
80537;BMP280;69867;47.074;15.404;2023-05-10T05:59:31;97265.19;;;17.50
80537;BMP280;69867;47.074;15.404;2023-05-10T06:01:56;97269.53;;;17.04
80537;BMP280;69867;47.074;15.404;2023-05-10T06:04:21;97270.19;;;16.74
80537;BMP280;69867;47.074;15.404;2023-05-10T06:06:47;97274.56;;;16.41
80537;BMP280;69867;47.074;15.404;2023-05-10T06:09:12;97271.56;;;16.14
80537;BMP280;69867;47.074;15.404;2023-05-10T06:11:38;97285.38;;;16.00
80537;BMP280;69867;47.074;15.404;2023-05-10T06:14:04;97287.19;;;15.81
80537;BMP280;69867;47.074;15.404;2023-05-10T06:16:30;97297.56;;;15.09
80537;BMP280;69867;47.074;15.404;2023-05-10T06:18:56;97301.59;;;14.58
80537;BMP280;69867;47.074;15.404;2023-05-10T06:21:21;97302.38;;;14.60
80537;BMP280;69867;47.074;15.404;2023-05-10T06:23:46;97301.66;;;14.56
80537;BMP280;69867;47.074;15.404;2023-05-10T06:26:12;97300.22;;;14.49
80537;BMP280;69867;47.074;15.404;2023-05-10T06:28:37;97297.53;;;14.30
80537;BMP280;69867;47.074;15.404;2023-05-10T06:31:02;97305.47;;;14.27
80537;BMP280;69867;47.074;15.404;2023-05-10T06:33:28;97295.75;;;14.31
80537;BMP280;69867;47.074;15.404;2023-05-10T06:35:53;97297.47;;;14.10
80537;BMP280;69867;47.074;15.404;2023-05-10T06:38:18;97297.88;;;14.21
80537;BMP280;69867;47.074;15.404;2023-05-10T06:40:44;97294.22;;;14.25
80537;BMP280;69867;47.074;15.404;2023-05-10T06:43:10;97290.28;;;14.15
80537;BMP280;69867;47.074;15.404;2023-05-10T06:45:35;97298.03;;;14.38
80537;BMP280;69867;47.074;15.404;2023-05-10T06:48:01;97296.22;;;14.61
80537;BMP280;69867;47.074;15.404;2023-05-10T06:50:26;97290.69;;;14.87
80537;BMP280;69867;47.074;15.404;2023-05-10T06:52:51;97285.75;;;15.00
80537;BMP280;69867;47.074;15.404;2023-05-10T06:55:17;97285.88;;;15.16
80537;BMP280;69867;47.074;15.404;2023-05-10T06:57:42;97280.75;;;14.75
80537;BMP280;69867;47.074;15.404;2023-05-10T07:00:08;97285.41;;;14.68
80537;BMP280;69867;47.074;15.404;2023-05-10T07:02:33;97289.19;;;15.00
80537;BMP280;69867;47.074;15.404;2023-05-10T07:04:58;97282.91;;;15.04
80537;BMP280;69867;47.074;15.404;2023-05-10T07:07:24;97280.94;;;15.10
80537;BMP280;69867;47.074;15.404;2023-05-10T07:09:49;97276.91;;;15.02
80537;BMP280;69867;47.074;15.404;2023-05-10T07:12:14;97273.56;;;14.99
80537;BMP280;69867;47.074;15.404;2023-05-10T07:14:40;97274.63;;;15.14
80537;BMP280;69867;47.074;15.404;2023-05-10T07:17:05;97277.31;;;15.31
80537;BMP280;69867;47.074;15.404;2023-05-10T07:19:30;97269.78;;;15.80
80537;BMP280;69867;47.074;15.404;2023-05-10T07:21:56;97267.31;;;16.28
80537;BMP280;69867;47.074;15.404;2023-05-10T07:24:21;97262.56;;;16.70
80537;BMP280;69867;47.074;15.404;2023-05-10T07:26:46;97258.75;;;17.08
80537;BMP280;69867;47.074;15.404;2023-05-10T07:29:12;97265.22;;;17.18
80537;BMP280;69867;47.074;15.404;2023-05-10T07:31:37;97260.97;;;17.16
80537;BMP280;69867;47.074;15.404;2023-05-10T07:34:03;97266.47;;;17.27
80537;BMP280;69867;47.074;15.404;2023-05-10T07:36:28;97262.59;;;17.18
80537;BMP280;69867;47.074;15.404;2023-05-10T07:38:53;97266.22;;;17.00
80537;BMP280;69867;47.074;15.404;2023-05-10T07:41:19;97265.47;;;16.13
80537;BMP280;69867;47.074;15.404;2023-05-10T07:43:44;97269.53;;;16.36
80537;BMP280;69867;47.074;15.404;2023-05-10T07:46:09;97272.63;;;16.27
80537;BMP280;69867;47.074;15.404;2023-05-10T07:48:34;97268.56;;;16.21
80537;BMP280;69867;47.074;15.404;2023-05-10T07:51:00;97268.09;;;16.30
80537;BMP280;69867;47.074;15.404;2023-05-10T07:53:26;97276.16;;;16.43
80537;BMP280;69867;47.074;15.404;2023-05-10T07:55:54;97267.66;;;16.73
80537;BMP280;69867;47.074;15.404;2023-05-10T07:58:22;97265.13;;;16.71
80537;BMP280;69867;47.074;15.404;2023-05-10T08:00:47;97261.41;;;16.75
80537;BMP280;69867;47.074;15.404;2023-05-10T08:03:12;97266.88;;;16.71
80537;BMP280;69867;47.074;15.404;2023-05-10T08:05:38;97270.69;;;16.98
80537;BMP280;69867;47.074;15.404;2023-05-10T08:08:03;97262.53;;;16.87
80537;BMP280;69867;47.074;15.404;2023-05-10T08:10:28;97261.38;;;16.92
80537;BMP280;69867;47.074;15.404;2023-05-10T08:12:54;97266.66;;;17.24
80537;BMP280;69867;47.074;15.404;2023-05-10T08:15:19;97269.69;;;17.48
80537;BMP280;69867;47.074;15.404;2023-05-10T08:17:44;97265.63;;;17.58
80537;BMP280;69867;47.074;15.404;2023-05-10T08:20:10;97266.78;;;17.84
80537;BMP280;69867;47.074;15.404;2023-05-10T08:22:35;97267.19;;;17.92
80537;BMP280;69867;47.074;15.404;2023-05-10T08:25:01;97264.69;;;18.05
80537;BMP280;69867;47.074;15.404;2023-05-10T08:27:26;97260.03;;;18.40
80537;BMP280;69867;47.074;15.404;2023-05-10T08:29:51;97254.63;;;18.71
80537;BMP280;69867;47.074;15.404;2023-05-10T08:32:17;97248.97;;;18.63
80537;BMP280;69867;47.074;15.404;2023-05-10T08:34:42;97254.34;;;18.62
80537;BMP280;69867;47.074;15.404;2023-05-10T08:37:08;97257.97;;;18.59
80537;BMP280;69867;47.074;15.404;2023-05-10T08:39:34;97256.78;;;18.79
80537;BMP280;69867;47.074;15.404;2023-05-10T08:42:02;97258.47;;;18.66
80537;BMP280;69867;47.074;15.404;2023-05-10T08:44:30;97255.94;;;18.64
80537;BMP280;69867;47.074;15.404;2023-05-10T08:46:57;97260.78;;;18.56
80537;BMP280;69867;47.074;15.404;2023-05-10T08:49:25;97256.94;;;18.47
80537;BMP280;69867;47.074;15.404;2023-05-10T08:51:54;97259.13;;;18.69
80537;BMP280;69867;47.074;15.404;2023-05-10T08:54:21;97249.84;;;18.64
80537;BMP280;69867;47.074;15.404;2023-05-10T08:56:46;97246.91;;;18.68
80537;BMP280;69867;47.074;15.404;2023-05-10T08:59:12;97249.38;;;18.71
80537;BMP280;69867;47.074;15.404;2023-05-10T09:01:37;97254.25;;;18.92
80537;BMP280;69867;47.074;15.404;2023-05-10T09:04:03;97250.84;;;19.04
80537;BMP280;69867;47.074;15.404;2023-05-10T09:06:29;97253.97;;;18.96
80537;BMP280;69867;47.074;15.404;2023-05-10T09:08:54;97244.25;;;19.11
80537;BMP280;69867;47.074;15.404;2023-05-10T09:11:20;97246.31;;;19.20
80537;BMP280;69867;47.074;15.404;2023-05-10T09:13:48;97246.63;;;19.42
80537;BMP280;69867;47.074;15.404;2023-05-10T09:16:15;97250.97;;;19.58
80537;BMP280;69867;47.074;15.404;2023-05-10T09:18:41;97250.88;;;19.86
80537;BMP280;69867;47.074;15.404;2023-05-10T09:21:06;97233.59;;;19.95
80537;BMP280;69867;47.074;15.404;2023-05-10T09:23:31;97233.25;;;20.39
80537;BMP280;69867;47.074;15.404;2023-05-10T09:26:06;97237.06;;;20.73
80537;BMP280;69867;47.074;15.404;2023-05-10T09:28:59;97231.16;;;20.57
80537;BMP280;69867;47.074;15.404;2023-05-10T09:31:43;97232.19;;;20.67
80537;BMP280;69867;47.074;15.404;2023-05-10T09:34:09;97236.00;;;20.75
80537;BMP280;69867;47.074;15.404;2023-05-10T09:36:34;97234.53;;;20.59
80537;BMP280;69867;47.074;15.404;2023-05-10T09:38:59;97237.06;;;20.73
80537;BMP280;69867;47.074;15.404;2023-05-10T09:41:25;97227.88;;;20.53
80537;BMP280;69867;47.074;15.404;2023-05-10T09:43:55;97224.41;;;20.53
80537;BMP280;69867;47.074;15.404;2023-05-10T09:46:21;97233.78;;;20.44
80537;BMP280;69867;47.074;15.404;2023-05-10T09:48:47;97233.97;;;20.28
80537;BMP280;69867;47.074;15.404;2023-05-10T09:51:19;97224.28;;;20.54
80537;BMP280;69867;47.074;15.404;2023-05-10T09:53:45;97219.31;;;20.75
80537;BMP280;69867;47.074;15.404;2023-05-10T09:56:10;97222.47;;;20.80
80537;BMP280;69867;47.074;15.404;2023-05-10T09:58:38;97216.56;;;20.76
80537;BMP280;69867;47.074;15.404;2023-05-10T10:01:04;97218.22;;;20.27
80537;BMP280;69867;47.074;15.404;2023-05-10T10:03:29;97216.00;;;20.33
80537;BMP280;69867;47.074;15.404;2023-05-10T10:05:55;97218.19;;;20.01
80537;BMP280;69867;47.074;15.404;2023-05-10T10:08:20;97213.56;;;20.18
80537;BMP280;69867;47.074;15.404;2023-05-10T10:10:46;97210.66;;;20.48
80537;BMP280;69867;47.074;15.404;2023-05-10T10:13:11;97207.91;;;20.49
80537;BMP280;69867;47.074;15.404;2023-05-10T10:15:37;97208.72;;;20.11
80537;BMP280;69867;47.074;15.404;2023-05-10T10:18:03;97213.22;;;19.57
80537;BMP280;69867;47.074;15.404;2023-05-10T10:20:30;97207.56;;;19.63
80537;BMP280;69867;47.074;15.404;2023-05-10T10:22:55;97197.09;;;20.01
80537;BMP280;69867;47.074;15.404;2023-05-10T10:25:21;97199.66;;;20.16
80537;BMP280;69867;47.074;15.404;2023-05-10T10:27:56;97206.50;;;20.18
80537;BMP280;69867;47.074;15.404;2023-05-10T10:30:42;97204.34;;;19.85
80537;BMP280;69867;47.074;15.404;2023-05-10T10:35:52;97193.25;;;19.80
80537;BMP280;69867;47.074;15.404;2023-05-10T10:38:18;97197.34;;;19.71
80537;BMP280;69867;47.074;15.404;2023-05-10T10:40:43;97199.00;;;19.99
80537;BMP280;69867;47.074;15.404;2023-05-10T10:43:26;97193.56;;;20.40
80537;BMP280;69867;47.074;15.404;2023-05-10T10:48:40;97193.34;;;20.69
80537;BMP280;69867;47.074;15.404;2023-05-10T10:51:05;97198.38;;;20.08
80537;BMP280;69867;47.074;15.404;2023-05-10T10:53:31;97195.25;;;19.76
80537;BMP280;69867;47.074;15.404;2023-05-10T10:56:13;97191.13;;;19.72
80537;BMP280;69867;47.074;15.404;2023-05-10T10:58:39;97194.97;;;19.54
80537;BMP280;69867;47.074;15.404;2023-05-10T11:01:18;97183.72;;;20.17
80537;BMP280;69867;47.074;15.404;2023-05-10T11:06:34;97181.00;;;20.44
80537;BMP280;69867;47.074;15.404;2023-05-10T11:09:07;97176.56;;;20.57
80537;BMP280;69867;47.074;15.404;2023-05-10T11:11:34;97170.53;;;20.81
80537;BMP280;69867;47.074;15.404;2023-05-10T11:14:04;97169.22;;;20.99
80537;BMP280;69867;47.074;15.404;2023-05-10T11:16:40;97164.06;;;21.21
80537;BMP280;69867;47.074;15.404;2023-05-10T11:19:11;97164.56;;;21.02
80537;BMP280;69867;47.074;15.404;2023-05-10T11:24:29;97157.38;;;21.04
80537;BMP280;69867;47.074;15.404;2023-05-10T11:26:56;97156.56;;;20.91
80537;BMP280;69867;47.074;15.404;2023-05-10T11:29:21;97156.03;;;20.73
80537;BMP280;69867;47.074;15.404;2023-05-10T11:31:47;97160.38;;;20.36
80537;BMP280;69867;47.074;15.404;2023-05-10T11:34:29;97162.31;;;20.47
80537;BMP280;69867;47.074;15.404;2023-05-10T11:36:56;97159.97;;;20.30
80537;BMP280;69867;47.074;15.404;2023-05-10T11:39:29;97160.91;;;20.16
80537;BMP280;69867;47.074;15.404;2023-05-10T11:41:55;97167.31;;;19.74
80537;BMP280;69867;47.074;15.404;2023-05-10T11:44:21;97165.41;;;19.22
80537;BMP280;69867;47.074;15.404;2023-05-10T11:46:46;97169.41;;;19.01
80537;BMP280;69867;47.074;15.404;2023-05-10T11:49:11;97168.00;;;18.95
80537;BMP280;69867;47.074;15.404;2023-05-10T11:51:37;97177.03;;;18.91
80537;BMP280;69867;47.074;15.404;2023-05-10T11:54:07;97166.81;;;18.72
80537;BMP280;69867;47.074;15.404;2023-05-10T11:56:33;97162.28;;;18.60
80537;BMP280;69867;47.074;15.404;2023-05-10T11:58:59;97165.13;;;18.57
80537;BMP280;69867;47.074;15.404;2023-05-10T12:01:26;97160.69;;;18.58
80537;BMP280;69867;47.074;15.404;2023-05-10T12:03:53;97157.78;;;18.48
80537;BMP280;69867;47.074;15.404;2023-05-10T12:06:20;97165.78;;;18.46
80537;BMP280;69867;47.074;15.404;2023-05-10T12:08:47;97168.41;;;18.46
80537;BMP280;69867;47.074;15.404;2023-05-10T12:11:14;97167.75;;;18.57
80537;BMP280;69867;47.074;15.404;2023-05-10T12:13:41;97162.41;;;18.44
80537;BMP280;69867;47.074;15.404;2023-05-10T12:16:15;97166.66;;;18.61
80537;BMP280;69867;47.074;15.404;2023-05-10T12:18:40;97166.94;;;18.71
80537;BMP280;69867;47.074;15.404;2023-05-10T12:21:06;97166.19;;;18.69
80537;BMP280;69867;47.074;15.404;2023-05-10T12:23:31;97165.59;;;18.78
80537;BMP280;69867;47.074;15.404;2023-05-10T12:26:02;97166.91;;;18.85
80537;BMP280;69867;47.074;15.404;2023-05-10T12:28:30;97159.47;;;18.92
80537;BMP280;69867;47.074;15.404;2023-05-10T12:30:57;97165.88;;;18.88
80537;BMP280;69867;47.074;15.404;2023-05-10T12:33:22;97165.66;;;18.91
80537;BMP280;69867;47.074;15.404;2023-05-10T12:35:52;97166.41;;;18.93
80537;BMP280;69867;47.074;15.404;2023-05-10T12:38:25;97160.69;;;18.86
80537;BMP280;69867;47.074;15.404;2023-05-10T12:40:51;97161.19;;;18.78
80537;BMP280;69867;47.074;15.404;2023-05-10T12:43:16;97166.91;;;18.57
80537;BMP280;69867;47.074;15.404;2023-05-10T12:45:41;97167.75;;;18.43
80537;BMP280;69867;47.074;15.404;2023-05-10T12:48:07;97161.75;;;18.41
80537;BMP280;69867;47.074;15.404;2023-05-10T12:50:32;97165.88;;;18.31
80537;BMP280;69867;47.074;15.404;2023-05-10T12:52:57;97172.25;;;18.27
80537;BMP280;69867;47.074;15.404;2023-05-10T12:55:23;97165.75;;;18.18
80537;BMP280;69867;47.074;15.404;2023-05-10T12:57:48;97166.44;;;18.21
80537;BMP280;69867;47.074;15.404;2023-05-10T13:00:14;97163.81;;;18.21
80537;BMP280;69867;47.074;15.404;2023-05-10T13:02:39;97163.03;;;18.19
80537;BMP280;69867;47.074;15.404;2023-05-10T13:05:05;97161.69;;;18.12
80537;BMP280;69867;47.074;15.404;2023-05-10T13:07:30;97158.50;;;18.07
80537;BMP280;69867;47.074;15.404;2023-05-10T13:09:56;97154.19;;;18.06
80537;BMP280;69867;47.074;15.404;2023-05-10T13:12:21;97154.47;;;18.02
80537;BMP280;69867;47.074;15.404;2023-05-10T13:14:46;97155.97;;;18.06
80537;BMP280;69867;47.074;15.404;2023-05-10T13:17:12;97154.19;;;18.06
80537;BMP280;69867;47.074;15.404;2023-05-10T13:19:37;97147.31;;;18.04
80537;BMP280;69867;47.074;15.404;2023-05-10T13:22:02;97155.50;;;18.13
80537;BMP280;69867;47.074;15.404;2023-05-10T13:24:28;97148.78;;;18.23
80537;BMP280;69867;47.074;15.404;2023-05-10T13:26:53;97148.22;;;18.33
80537;BMP280;69867;47.074;15.404;2023-05-10T13:29:18;97149.34;;;18.29
80537;BMP280;69867;47.074;15.404;2023-05-10T13:31:44;97143.16;;;18.30
80537;BMP280;69867;47.074;15.404;2023-05-10T13:34:09;97143.25;;;18.28
80537;BMP280;69867;47.074;15.404;2023-05-10T13:36:34;97142.91;;;18.18
80537;BMP280;69867;47.074;15.404;2023-05-10T13:39:00;97137.47;;;18.07
80537;BMP280;69867;47.074;15.404;2023-05-10T13:41:26;97132.41;;;18.04
80537;BMP280;69867;47.074;15.404;2023-05-10T13:43:51;97138.03;;;17.98
80537;BMP280;69867;47.074;15.404;2023-05-10T13:46:16;97127.97;;;17.90
80537;BMP280;69867;47.074;15.404;2023-05-10T13:48:42;97134.44;;;17.85
80537;BMP280;69867;47.074;15.404;2023-05-10T13:51:07;97130.31;;;17.81
80537;BMP280;69867;47.074;15.404;2023-05-10T13:53:32;97129.38;;;17.82
80537;BMP280;69867;47.074;15.404;2023-05-10T13:55:58;97128.34;;;17.84
80537;BMP280;69867;47.074;15.404;2023-05-10T13:58:23;97129.09;;;17.86
80537;BMP280;69867;47.074;15.404;2023-05-10T14:00:48;97129.19;;;17.85
80537;BMP280;69867;47.074;15.404;2023-05-10T14:03:14;97129.28;;;17.98
80537;BMP280;69867;47.074;15.404;2023-05-10T14:05:39;97126.56;;;18.13
80537;BMP280;69867;47.074;15.404;2023-05-10T14:08:04;97126.72;;;18.26
80537;BMP280;69867;47.074;15.404;2023-05-10T14:10:29;97126.41;;;18.45
80537;BMP280;69867;47.074;15.404;2023-05-10T14:12:55;97120.50;;;18.41
80537;BMP280;69867;47.074;15.404;2023-05-10T14:15:20;97123.31;;;18.52
80537;BMP280;69867;47.074;15.404;2023-05-10T14:17:46;97125.19;;;18.50
80537;BMP280;69867;47.074;15.404;2023-05-10T14:20:11;97127.66;;;18.39
80537;BMP280;69867;47.074;15.404;2023-05-10T14:22:36;97123.59;;;18.34
80537;BMP280;69867;47.074;15.404;2023-05-10T14:25:02;97114.38;;;18.41